Time;durP1;ratioP1;P1;durP2;ratioP2;P2;SDS_P1;SDS_P2;PMS_P1;PMS_P2;Temp;Humidity;BMP_temperature;BMP_pressure;BME280_temperature;BME280_humidity;BME280_pressure;Samples;Min_cycle;Max_cycle;Signal;HPM_P1;HPM_P2
2021/03/07 00:01:08;;;;;;;59.15;26.70;;;;;;;2.64;64.57;102172.87;4459840;26;20014;-74
2021/03/07 00:03:33;;;;;;;55.78;28.42;;;;;;;2.63;64.49;102170.44;4443015;32;20071;-74
2021/03/07 00:05:59;;;;;;;64.60;27.95;;;;;;;2.77;64.38;102173.69;4431136;32;20034;-74
2021/03/07 00:08:25;;;;;;;59.65;26.62;;;;;;;2.84;64.24;102168.31;4431839;32;20073;-75
2021/03/07 00:10:51;;;;;;;50.40;25.23;;;;;;;2.86;64.19;102169.63;4432703;32;20038;-75
2021/03/07 00:13:17;;;;;;;50.25;26.08;;;;;;;2.99;64.05;102162.03;4431116;32;20055;-74
2021/03/07 00:15:42;;;;;;;57.22;26.30;;;;;;;3.05;63.26;102157.84;4423064;32;20057;-74
2021/03/07 00:18:08;;;;;;;61.67;27.75;;;;;;;3.13;62.93;102154.91;4435347;32;20037;-74
2021/03/07 00:20:34;;;;;;;53.75;26.25;;;;;;;3.21;62.41;102169.81;4421477;32;20073;-73
2021/03/07 00:23:00;;;;;;;42.45;21.25;;;;;;;3.28;61.99;102156.91;4423735;32;20041;-75
2021/03/07 00:25:26;;;;;;;45.15;21.48;;;;;;;3.35;61.83;102154.31;4436014;32;20042;-75
2021/03/07 00:27:51;;;;;;;43.17;20.75;;;;;;;3.29;61.83;102155.78;4424687;32;20085;-74
2021/03/07 00:30:18;;;;;;;45.00;20.83;;;;;;;3.33;62.21;102144.72;4427938;32;20069;-75
2021/03/07 00:32:44;;;;;;;46.70;22.80;;;;;;;3.37;61.92;102148.41;4437320;32;20094;-74
2021/03/07 00:35:11;;;;;;;39.72;20.20;;;;;;;3.41;61.86;102146.53;4436056;32;20038;-74
2021/03/07 00:37:38;;;;;;;40.22;19.62;;;;;;;3.43;61.49;102146.97;4436749;32;20066;-74
2021/03/07 00:40:05;;;;;;;41.17;20.92;;;;;;;3.52;61.44;102150.41;4422201;32;20042;-73
2021/03/07 00:42:31;;;;;;;35.42;19.70;;;;;;;3.57;61.01;102148.19;4421177;32;20068;-75
2021/03/07 00:44:57;;;;;;;36.78;20.17;;;;;;;3.60;60.49;102141.91;4415393;32;20244;-74
2021/03/07 00:47:24;;;;;;;40.42;20.77;;;;;;;3.59;61.09;102139.50;4421181;32;20030;-74
2021/03/07 00:49:50;;;;;;;42.38;20.85;;;;;;;3.46;61.73;102140.69;4421475;32;20072;-75
2021/03/07 00:52:15;;;;;;;46.30;21.77;;;;;;;3.46;61.51;102132.34;4431742;32;20041;-74
2021/03/07 00:54:41;;;;;;;42.45;21.83;;;;;;;3.36;61.73;102135.66;4422767;32;20075;-76
2021/03/07 00:57:07;;;;;;;48.03;20.98;;;;;;;3.32;61.94;102131.97;4429401;32;20041;-75
2021/03/07 00:59:32;;;;;;;46.75;20.27;;;;;;;3.38;62.13;102136.91;4427189;32;20061;-75
2021/03/07 01:01:58;;;;;;;40.80;19.35;;;;;;;3.37;62.07;102126.97;4412271;32;20058;-74
2021/03/07 01:04:24;;;;;;;44.47;19.98;;;;;;;3.43;61.81;102117.19;4404631;32;20081;-75
2021/03/07 01:06:50;;;;;;;41.20;19.80;;;;;;;3.46;61.83;102110.09;4406361;32;20047;-74
2021/03/07 01:09:16;;;;;;;41.85;19.58;;;;;;;3.58;61.62;102113.62;4406069;32;20102;-76
2021/03/07 01:11:42;;;;;;;37.38;19.48;;;;;;;3.52;61.36;102119.78;4410648;32;20403;-74
2021/03/07 01:14:08;;;;;;;38.17;19.40;;;;;;;3.56;61.52;102104.03;4408250;32;20078;-74
2021/03/07 01:16:34;;;;;;;37.20;18.83;;;;;;;3.61;61.46;102101.78;4418045;32;20030;-74
2021/03/07 01:19:00;;;;;;;39.78;19.12;;;;;;;3.64;61.51;102097.44;4400052;32;20076;-75
2021/03/07 01:21:26;;;;;;;43.03;20.05;;;;;;;3.65;61.61;102099.88;4404183;32;20118;-75
2021/03/07 01:23:52;;;;;;;41.20;19.35;;;;;;;3.61;61.45;102092.59;4406129;32;20427;-76
2021/03/07 01:26:17;;;;;;;36.30;17.77;;;;;;;3.64;61.29;102098.28;4404785;32;20115;-74
2021/03/07 01:28:43;;;;;;;38.90;18.70;;;;;;;3.67;61.36;102085.59;4418828;32;20037;-74
2021/03/07 01:31:09;;;;;;;39.90;19.92;;;;;;;3.64;61.08;102087.13;4419870;32;20101;-75
2021/03/07 01:33:35;;;;;;;39.13;18.52;;;;;;;3.61;61.55;102085.06;4420845;32;20050;-74
2021/03/07 01:36:03;;;;;;;36.90;18.37;;;;;;;3.58;61.81;102076.63;4419399;32;20120;-74
2021/03/07 01:38:30;;;;;;;39.70;18.17;;;;;;;3.52;62.25;102073.31;4418781;32;20057;-74
2021/03/07 01:40:57;;;;;;;37.70;20.20;;;;;;;3.44;63.17;102067.91;4420812;32;20094;-75
2021/03/07 01:43:23;;;;;;;37.92;18.37;;;;;;;3.45;62.94;102064.78;4405553;32;20064;-74
2021/03/07 01:45:51;;;;;;;41.58;20.15;;;;;;;3.47;62.82;102062.44;4405964;32;20055;-74
2021/03/07 01:48:17;;;;;;;40.20;19.95;;;;;;;3.39;62.67;102055.06;4405112;32;20054;-75
2021/03/07 01:50:52;;;;;;;36.17;18.42;;;;;;;3.35;63.16;102058.94;4418640;32;20079;-73
2021/03/07 01:53:18;;;;;;;;;;;;;;;3.28;63.67;102053.97;4406131;32;20119;-75
2021/03/07 01:55:45;;;;;;;45.78;20.20;;;;;;;3.22;63.79;102052.62;4406487;32;19953;-75
2021/03/07 01:58:18;;;;;;;43.65;21.15;;;;;;;3.18;63.72;102051.72;4416304;32;20050;-74
2021/03/07 02:00:44;;;;;;;44.33;18.65;;;;;;;3.17;63.79;102047.34;4411416;32;20030;-75
2021/03/07 02:03:10;;;;;;;43.28;19.27;;;;;;;3.11;64.07;102048.78;4419641;32;20058;-74
2021/03/07 02:05:36;;;;;;;35.70;17.20;;;;;;;3.08;63.96;102045.88;4420642;32;20468;-76
2021/03/07 02:08:03;;;;;;;44.63;19.77;;;;;;;3.06;63.82;102034.28;4418892;32;20383;-74
2021/03/07 02:10:32;;;;;;;37.72;18.42;;;;;;;2.99;63.45;102034.13;4409900;32;20092;-74
2021/03/07 02:13:02;;;;;;;38.80;17.90;;;;;;;2.95;63.79;102034.00;4418014;32;20141;-74
2021/03/07 02:15:31;;;;;;;36.88;17.42;;;;;;;2.86;64.24;102021.44;4411833;32;20121;-74
2021/03/07 02:17:57;;;;;;;44.90;18.33;;;;;;;2.80;64.34;102029.25;4403694;32;20042;-74
2021/03/07 02:20:25;;;;;;;40.08;18.60;;;;;;;2.80;64.16;102026.47;4407818;32;20075;-73
2021/03/07 02:25:30;;;;;;;35.70;16.92;;;;;;;2.77;64.30;102010.50;3989880;32;15024635;-73
2021/03/07 02:27:59;;;;;;;37.05;16.95;;;;;;;2.54;64.97;102009.44;4444298;32;20064;-73
2021/03/07 02:30:26;;;;;;;33.03;16.42;;;;;;;2.55;64.86;102011.06;4449308;32;20391;-74
2021/03/07 02:33:03;;;;;;;30.37;15.15;;;;;;;2.55;64.63;102002.72;4431488;32;20026;-73
2021/03/07 02:35:31;;;;;;;27.40;14.63;;;;;;;2.54;64.81;101998.31;4431917;32;20047;-74
2021/03/07 02:38:01;;;;;;;29.40;14.70;;;;;;;2.49;64.96;101993.03;4431220;32;20085;-73
2021/03/07 02:40:29;;;;;;;29.12;15.57;;;;;;;2.51;65.16;101996.25;4442579;32;20030;-73
2021/03/07 02:42:58;;;;;;;34.58;16.90;;;;;;;2.55;64.89;101985.22;4447725;32;20390;-73
2021/03/07 02:45:24;;;;;;;32.85;15.60;;;;;;;2.55;64.40;101994.38;4445563;32;20454;-73
2021/03/07 02:47:52;;;;;;;28.90;14.87;;;;;;;2.60;64.44;101979.41;4432211;32;20064;-74
2021/03/07 02:50:25;;;;;;;37.20;16.27;;;;;;;2.61;64.23;101976.28;4432592;32;20072;-74
2021/03/07 02:52:57;;;;;;;32.67;14.87;;;;;;;2.62;63.90;101980.69;4448384;32;20029;-74
2021/03/07 02:55:28;;;;;;;33.15;16.33;;;;;;;2.68;63.60;101981.22;4444352;32;20026;-74
2021/03/07 02:57:54;;;;;;;30.40;15.02;;;;;;;2.77;63.37;101977.12;4444729;32;20037;-74
2021/03/07 03:00:23;;;;;;;35.72;16.12;;;;;;;2.95;63.30;101983.16;4447675;32;20377;-74
2021/03/07 03:02:50;;;;;;;28.30;15.18;;;;;;;3.00;62.58;101977.31;4434430;32;20088;-74
2021/03/07 03:05:17;;;;;;;34.05;15.18;;;;;;;3.05;62.70;101977.88;4441439;32;20069;-75
2021/03/07 03:07:43;;;;;;;33.38;15.27;;;;;;;3.17;62.05;101980.59;4447343;32;20048;-74
2021/03/07 03:10:11;;;;;;;30.37;14.68;;;;;;;3.26;61.70;101978.44;4445786;32;20365;-74
2021/03/07 03:12:38;;;;;;;34.22;15.30;;;;;;;3.40;61.37;101977.97;4448101;32;20314;-74
2021/03/07 03:15:08;;;;;;;34.00;15.65;;;;;;;3.47;61.31;101964.25;4446873;32;20068;-75
2021/03/07 03:17:35;;;;;;;29.05;15.30;;;;;;;3.56;61.08;101973.19;4446865;32;20069;-73
2021/03/07 03:20:04;;;;;;;33.60;16.10;;;;;;;3.62;61.22;101968.97;4446725;32;20038;-75
2021/03/07 03:22:32;;;;;;;29.85;15.82;;;;;;;3.77;60.94;101974.50;4447298;32;20148;-74
2021/03/07 03:24:57;;;;;;;32.65;16.23;;;;;;;3.90;60.57;101962.06;4446065;32;20429;-73
2021/03/07 03:27:23;;;;;;;31.55;16.50;;;;;;;3.92;59.89;101962.50;4447989;32;20055;-74
2021/03/07 03:29:49;;;;;;;32.70;16.58;;;;;;;4.00;59.61;101961.50;4446658;32;20561;-74
2021/03/07 03:32:15;;;;;;;33.58;16.23;;;;;;;4.09;59.61;101962.06;4436049;32;20113;-74
2021/03/07 03:34:41;;;;;;;29.65;15.30;;;;;;;4.16;59.27;101950.28;4446739;32;20049;-74
2021/03/07 03:37:07;;;;;;;32.65;15.88;;;;;;;4.12;59.00;101955.78;4436658;32;20022;-75
2021/03/07 03:39:33;;;;;;;30.23;14.57;;;;;;;4.18;58.49;101947.12;4435450;32;20046;-74
2021/03/07 03:42:05;;;;;;;29.58;15.05;;;;;;;4.21;58.66;101950.00;4436688;32;20061;-74
2021/03/07 03:44:39;;;;;;;31.58;15.32;;;;;;;4.25;58.80;101953.66;4437180;32;20038;-74
2021/03/07 03:47:09;;;;;;;33.28;15.60;;;;;;;4.23;58.77;101942.06;4437373;32;20408;-73
2021/03/07 03:49:58;;;;;;;34.85;15.88;;;;;;;4.23;59.00;101938.50;4433863;32;20087;-76
2021/03/07 03:52:25;;;;;;;30.37;15.60;;;;;;;4.31;58.98;101929.09;4430618;32;20050;-74
2021/03/07 03:54:57;;;;;;;30.50;15.55;;;;;;;4.33;58.76;101935.13;4436847;32;20030;-74
2021/03/07 03:57:27;;;;;;;32.70;15.85;;;;;;;4.40;58.80;101930.50;4435629;32;20373;-74
2021/03/07 03:59:57;;;;;;;30.52;15.60;;;;;;;4.45;58.69;101926.59;4433328;32;20034;-75
2021/03/07 04:02:25;;;;;;;32.35;16.05;;;;;;;4.51;58.65;101928.69;4435295;32;20041;-74
2021/03/07 04:04:54;;;;;;;29.98;15.70;;;;;;;4.48;58.78;101929.44;4436042;32;20021;-74
2021/03/07 04:07:21;;;;;;;33.03;17.17;;;;;;;4.52;59.11;101923.94;4436788;32;20373;-74
2021/03/07 04:09:47;;;;;;;31.10;16.35;;;;;;;4.53;58.96;101922.75;4435200;32;20042;-74
2021/03/07 04:12:14;;;;;;;33.05;15.77;;;;;;;4.62;59.01;101918.56;4435964;32;20034;-74
2021/03/07 04:14:42;;;;;;;30.37;16.20;;;;;;;4.61;58.95;101922.53;4433919;32;20068;-74
2021/03/07 04:17:08;;;;;;;30.45;14.75;;;;;;;4.65;59.16;101920.63;4434922;32;20037;-74
2021/03/07 04:19:34;;;;;;;33.38;16.77;;;;;;;4.69;59.12;101924.28;4433731;32;20550;-73
2021/03/07 04:22:01;;;;;;;29.70;14.52;;;;;;;4.68;58.89;101916.28;4436654;32;20365;-73
2021/03/07 04:24:27;;;;;;;30.17;14.75;;;;;;;4.73;58.37;101914.00;4436094;32;20106;-73
2021/03/07 04:26:56;;;;;;;31.42;15.20;;;;;;;4.77;58.42;101920.44;4435592;32;20044;-74
2021/03/07 04:29:22;;;;;;;27.62;15.00;;;;;;;4.85;58.08;101911.03;4434433;32;20037;-74
2021/03/07 04:31:48;;;;;;;30.15;12.88;;;;;;;4.88;58.14;101913.06;4436155;32;20030;-73
2021/03/07 04:34:15;;;;;;;29.58;16.27;;;;;;;4.94;58.28;101913.59;4436397;32;20424;-74
2021/03/07 04:36:41;;;;;;;30.40;14.85;;;;;;;5.02;58.17;101915.31;4436653;32;20126;-73
2021/03/07 04:39:07;;;;;;;28.67;14.73;;;;;;;5.11;57.68;101913.88;4424183;32;20396;-74
2021/03/07 04:41:33;;;;;;;24.63;14.48;;;;;;;5.17;57.75;101917.16;4435803;32;20098;-75
2021/03/07 04:43:59;;;;;;;33.80;15.57;;;;;;;5.19;57.59;101904.44;4434306;32;20445;-74
2021/03/07 04:46:25;;;;;;;33.17;14.20;;;;;;;5.20;57.81;101911.66;4435433;32;20377;-73
2021/03/07 04:48:53;;;;;;;27.45;14.98;;;;;;;5.27;57.67;101916.50;4433735;32;20437;-75
2021/03/07 04:51:19;;;;;;;28.23;14.45;;;;;;;5.31;57.34;101906.22;4436275;32;20566;-73
2021/03/07 04:53:45;;;;;;;38.40;14.50;;;;;;;5.36;57.06;101905.91;4435034;32;20047;-74
2021/03/07 04:56:10;;;;;;;28.60;14.77;;;;;;;5.35;57.20;101907.91;4435790;32;20025;-74
2021/03/07 04:58:37;;;;;;;30.67;14.13;;;;;;;5.45;56.86;101910.03;4435321;32;20393;-74
2021/03/07 05:01:04;;;;;;;32.10;14.77;;;;;;;5.55;56.59;101905.78;4432726;32;20526;-74
2021/03/07 05:03:30;;;;;;;31.40;14.52;;;;;;;5.54;56.52;101906.97;4436011;32;20112;-75
2021/03/07 05:05:56;;;;;;;28.80;14.10;;;;;;;5.61;56.49;101905.09;4434742;32;20048;-74
2021/03/07 05:08:22;;;;;;;25.05;12.80;;;;;;;5.58;56.69;101902.25;4435415;32;20042;-73
2021/03/07 05:10:48;;;;;;;29.83;14.43;;;;;;;5.62;56.41;101901.13;4434454;32;20029;-74
2021/03/07 05:13:14;;;;;;;26.65;14.20;;;;;;;5.66;56.21;101907.56;4435572;32;20053;-76
2021/03/07 05:15:39;;;;;;;27.42;14.25;;;;;;;5.68;56.48;101902.41;4434830;32;20060;-75
2021/03/07 05:18:06;;;;;;;28.90;14.35;;;;;;;5.71;56.26;101910.03;4434842;32;20394;-75
2021/03/07 05:20:33;;;;;;;28.45;14.43;;;;;;;5.70;56.32;101907.59;4434638;32;20037;-74
2021/03/07 05:22:59;;;;;;;26.55;14.18;;;;;;;5.70;55.63;101902.03;4435358;32;20472;-74
2021/03/07 05:25:25;;;;;;;27.45;14.13;;;;;;;5.60;56.19;101897.91;4435473;32;20041;-74
2021/03/07 05:27:51;;;;;;;27.40;13.02;;;;;;;5.64;56.08;101898.75;4434647;32;20446;-75
2021/03/07 05:30:17;;;;;;;26.00;12.82;;;;;;;5.57;55.73;101900.63;4432495;32;20026;-74
2021/03/07 05:32:42;;;;;;;25.67;12.63;;;;;;;5.62;55.83;101894.75;4435102;32;20021;-75
2021/03/07 05:35:09;;;;;;;28.48;13.15;;;;;;;5.57;55.64;101892.25;4435537;32;20060;-75
2021/03/07 05:37:35;;;;;;;30.45;13.77;;;;;;;5.65;55.71;101883.59;4434632;32;20077;-75
2021/03/07 05:40:00;;;;;;;26.02;13.82;;;;;;;5.68;55.62;101890.44;4433530;32;20029;-74
2021/03/07 05:42:29;;;;;;;33.25;15.00;;;;;;;5.73;55.79;101885.31;4435424;32;20064;-75
2021/03/07 05:44:55;;;;;;;34.22;14.68;;;;;;;5.72;55.78;101883.72;4433471;32;20115;-73
2021/03/07 05:47:21;;;;;;;30.08;14.52;;;;;;;5.71;56.01;101887.69;4434194;32;20056;-74
2021/03/07 05:49:47;;;;;;;28.35;13.82;;;;;;;5.78;56.01;101876.63;4434127;32;20068;-75
2021/03/07 05:52:13;;;;;;;31.40;13.62;;;;;;;5.84;55.87;101877.13;4434650;32;20079;-76
2021/03/07 05:54:39;;;;;;;30.37;13.45;;;;;;;5.79;55.89;101878.22;4433834;32;20392;-75
2021/03/07 05:57:06;;;;;;;25.30;13.50;;;;;;;5.83;56.03;101872.72;4434028;32;20026;-76
2021/03/07 05:59:34;;;;;;;23.38;12.70;;;;;;;5.90;55.90;101867.22;4431724;32;20093;-76
2021/03/07 06:02:00;;;;;;;26.40;13.18;;;;;;;5.92;55.62;101878.81;4434452;32;20034;-77
2021/03/07 06:04:26;;;;;;;27.17;13.50;;;;;;;5.89;55.55;101872.00;4433150;32;20066;-75
2021/03/07 06:06:52;;;;;;;27.58;13.18;;;;;;;5.92;55.03;101876.00;4420821;32;20054;-74
2021/03/07 06:09:21;;;;;;;24.92;12.48;;;;;;;5.94;54.84;101868.88;4432115;32;20061;-75
2021/03/07 06:11:49;;;;;;;30.00;12.68;;;;;;;6.00;55.13;101866.53;4434337;32;20090;-75
2021/03/07 06:17:06;;;;;;;31.75;13.57;;;;;;;6.10;55.33;101861.09;3988815;32;15022511;-76
2021/03/07 06:19:56;;;;;;;27.42;12.63;;;;;;;6.04;55.76;101871.00;4438011;32;20112;-76
2021/03/07 06:22:22;;;;;;;26.60;13.10;;;;;;;6.10;55.22;101865.88;4436717;32;20022;-75
2021/03/07 06:24:48;;;;;;;28.55;13.98;;;;;;;6.11;54.89;101862.69;4445862;32;20068;-75
2021/03/07 06:27:17;;;;;;;29.05;13.00;;;;;;;6.14;54.58;101864.72;4446411;32;20078;-76
2021/03/07 06:32:37;;;;;;;29.83;12.73;;;;;;;6.64;54.44;101856.87;4012223;31;15018283;-75
2021/03/07 06:35:05;;;;;;;24.15;12.63;;;;;;;6.64;54.44;101856.87;4465599;32;20059;-75
2021/03/07 06:37:31;;;;;;;26.55;13.13;;;;;;;6.19;55.23;101860.78;4465906;32;20041;-75
2021/03/07 06:39:58;;;;;;;29.52;13.40;;;;;;;6.09;55.11;101855.88;4476071;32;20467;-75
2021/03/07 06:42:24;;;;;;;27.55;13.45;;;;;;;6.03;53.89;101858.22;4477444;32;20040;-75
2021/03/07 06:44:55;;;;;;;35.47;13.18;;;;;;;6.04;54.30;101859.81;4472129;32;20052;-76
2021/03/07 06:47:21;;;;;;;29.00;13.38;;;;;;;6.01;54.33;101852.19;4463144;32;20025;-77
2021/03/07 06:49:46;;;;;;;29.25;13.05;;;;;;;5.99;54.45;101857.34;4471640;32;20032;-75
2021/03/07 06:57:40;;;;;;;31.25;14.80;;;;;;;6.37;52.72;101859.00;4011791;31;15019093;-75
2021/03/07 07:00:07;;;;;;;37.22;15.18;;;;;;;6.37;52.72;101859.00;4463761;32;20067;-75
2021/03/07 07:02:33;;;;;;;30.55;14.30;;;;;;;6.06;53.44;101860.25;4470326;32;20037;-74
2021/03/07 07:04:59;;;;;;;37.22;15.27;;;;;;;6.15;53.60;101865.53;4465201;32;20485;-76
2021/03/07 07:07:25;;;;;;;33.35;15.20;;;;;;;6.21;53.38;101866.81;4466355;32;20452;-75
2021/03/07 07:10:07;;;;;;;33.15;14.75;;;;;;;6.24;53.46;101866.03;4461218;32;20052;-75
2021/03/07 07:12:32;;;;;;;33.55;14.90;;;;;;;6.36;53.44;101857.41;4473313;32;20081;-74
2021/03/07 07:15:14;;;;;;;34.90;16.27;;;;;;;6.40;53.37;101860.22;4463622;32;20033;-76
2021/03/07 07:17:40;;;;;;;36.53;16.10;;;;;;;6.49;52.72;101855.12;4459247;32;20116;-75
2021/03/07 07:20:09;;;;;;;37.83;17.33;;;;;;;6.51;52.31;101858.34;4471850;32;20123;-76
2021/03/07 07:22:35;;;;;;;39.35;16.80;;;;;;;6.55;52.11;101864.78;4473734;32;20142;-75
2021/03/07 07:25:03;;;;;;;35.47;16.58;;;;;;;6.51;51.93;101875.94;4476490;32;20029;-75
2021/03/07 07:27:29;;;;;;;45.63;16.67;;;;;;;6.53;52.17;101862.34;4441683;32;20436;-75
2021/03/07 07:29:55;;;;;;;39.67;17.23;;;;;;;6.63;52.03;101872.84;4459861;32;20076;-75
2021/03/07 07:35:03;;;;;;;37.20;17.60;;;;;;;7.18;50.87;101874.53;3987196;32;15023157;-75
2021/03/07 07:40:05;;;;;;;36.50;16.83;;;;;;;7.31;50.88;101875.03;3986332;32;15022077;-75
2021/03/07 07:42:34;;;;;;;33.10;15.90;;;;;;;7.31;50.88;101875.03;4445222;32;20124;-75
2021/03/07 07:45:19;;;;;;;45.47;17.62;;;;;;;6.90;51.39;101865.91;4442202;32;20071;-75
2021/03/07 07:47:46;;;;;;;;;;;;;;;6.73;51.62;101862.97;4441307;32;20065;-75
2021/03/07 07:50:34;;;;;;;38.80;17.20;;;;;;;6.78;51.54;101855.00;4438218;32;19956;-74
2021/03/07 07:55:57;;;;;;;42.80;18.90;;;;;;;7.34;50.70;101851.88;3989881;32;15023653;-75
2021/03/07 08:01:15;;;;;;;45.90;19.42;;;;;;;7.54;50.13;101865.19;4015157;31;15015315;-74
2021/03/07 08:03:44;;;;;;;42.10;19.65;;;;;;;7.54;50.13;101865.19;4465496;32;20021;-74
2021/03/07 08:06:13;;;;;;;44.05;20.98;;;;;;;7.22;50.26;101863.38;4468018;32;20071;-74
2021/03/07 08:08:40;;;;;;;41.80;20.50;;;;;;;7.18;50.24;101854.94;4474641;32;20103;-74
2021/03/07 08:11:26;;;;;;;38.92;19.52;;;;;;;7.14;50.20;101850.50;4469626;32;20059;-74
2021/03/07 08:13:54;;;;;;;47.58;21.45;;;;;;;7.10;50.46;101853.28;4461865;32;20036;-75
2021/03/07 08:16:38;;;;;;;50.30;21.87;;;;;;;7.03;50.55;101850.41;4458296;32;20416;-73
2021/03/07 08:19:05;;;;;;;45.15;20.45;;;;;;;6.90;50.44;101845.53;4449925;32;20032;-74
2021/03/07 08:21:55;;;;;;;43.03;20.23;;;;;;;6.90;50.53;101843.53;4471968;32;20079;-74
2021/03/07 08:24:21;;;;;;;46.88;20.65;;;;;;;6.95;50.35;101845.97;4471066;32;20041;-74
2021/03/07 08:29:43;;;;;;;57.17;26.37;;;;;;;7.42;49.31;101843.13;3993113;32;15023302;-75
2021/03/07 08:38:19;;;;;;;51.37;24.05;;;;;;;7.68;49.18;101845.69;3990636;32;15023469;-74
2021/03/07 08:40:56;;;;;;;50.33;23.02;;;;;;;7.68;49.18;101845.69;4445229;32;20041;-75
2021/03/07 08:48:35;;;;;;;49.78;21.55;;;;;;;7.79;48.98;101842.91;4011609;31;15017946;-74
2021/03/07 08:51:03;;;;;;;46.97;22.98;;;;;;;7.79;48.98;101842.91;4475046;32;20401;-75
2021/03/07 08:53:31;;;;;;;47.72;21.40;;;;;;;7.57;48.88;101841.19;4478866;32;20433;-75
2021/03/07 08:55:57;;;;;;;44.17;20.10;;;;;;;7.58;49.15;101845.62;4477377;32;20082;-75
2021/03/07 08:58:23;;;;;;;36.53;18.10;;;;;;;7.12;50.39;101850.91;4472720;32;20041;-76
2021/03/07 09:00:52;;;;;;;38.35;18.40;;;;;;;7.16;50.71;101840.56;4477104;32;20052;-75
2021/03/07 09:03:19;;;;;;;37.92;18.58;;;;;;;7.33;50.31;101837.06;4449153;32;20092;-76
2021/03/07 09:05:46;;;;;;;43.17;17.45;;;;;;;7.37;50.47;101828.69;4454967;32;20113;-74
2021/03/07 09:08:13;;;;;;;38.33;17.87;;;;;;;7.53;49.94;101827.19;4447392;32;20049;-76
2021/03/07 09:10:43;;;;;;;38.13;18.20;;;;;;;7.32;50.57;101831.84;4448697;32;20045;-76
2021/03/07 09:16:02;;;;;;;36.90;17.23;;;;;;;7.40;50.97;101822.31;3994953;32;15023585;-74
2021/03/07 09:18:31;;;;;;;39.33;17.98;;;;;;;7.44;50.89;101818.34;4434160;32;20142;-75
2021/03/07 09:20:59;;;;;;;38.47;16.60;;;;;;;7.59;50.75;101808.81;4442225;32;20051;-76
2021/03/07 09:26:04;;;;;;;38.72;20.08;;;;;;;8.19;49.29;101811.81;3993098;32;15022020;-75
2021/03/07 09:31:12;;;;;;;43.83;19.60;;;;;;;8.28;49.38;101809.47;3961759;32;15725402;-76
2021/03/07 09:33:38;;;;;;;33.05;17.45;;;;;;;8.28;49.38;101809.47;4442795;32;20073;-75
2021/03/07 09:36:13;;;;;;;36.38;16.65;;;;;;;8.03;49.90;101798.19;4438345;32;20073;-74
2021/03/07 09:41:29;;;;;;;37.20;16.67;;;;;;;9.19;48.16;101797.50;4015387;31;15015737;-74
2021/03/07 09:43:56;;;;;;;33.25;15.95;;;;;;;9.19;48.16;101797.50;4465237;32;20053;-75
2021/03/07 09:46:23;;;;;;;33.92;15.18;;;;;;;9.20;47.86;101790.66;4472458;32;20091;-75
2021/03/07 09:48:54;;;;;;;27.70;13.18;;;;;;;9.48;47.57;101785.78;4462590;32;20037;-76
2021/03/07 09:51:21;;;;;;;36.47;15.00;;;;;;;9.81;47.41;101790.06;4463098;32;20041;-75
2021/03/07 09:53:47;;;;;;;27.35;13.90;;;;;;;10.02;46.48;101787.97;4464866;32;20033;-76
2021/03/07 09:59:18;;;;;;;25.67;13.07;;;;;;;10.46;45.97;101789.37;3991260;32;15077009;-76
2021/03/07 10:04:39;;;;;;;27.70;12.90;;;;;;;10.99;45.00;101796.19;3961556;32;15724475;-76
2021/03/07 10:17:51;;;;;;;24.92;12.70;;;;;;;11.27;44.22;101783.81;3985862;32;15025746;-75
2021/03/07 10:20:17;;;;;;;23.73;13.18;;;;;;;11.32;44.03;101797.47;4436448;32;20044;-75
2021/03/07 10:22:45;;;;;;;25.50;11.98;;;;;;;11.14;45.01;101797.62;4442325;32;20067;-76
2021/03/07 10:28:05;;;;;;;25.00;11.40;;;;;;;11.82;43.66;101778.78;3991276;32;15022446;-75
2021/03/07 10:41:24;;;;;;;25.83;13.48;;;;;;;13.48;40.47;101801.19;3992741;32;15024779;-76
2021/03/07 10:43:53;;;;;;;27.10;13.32;;;;;;;13.48;40.47;101801.19;4444371;32;20045;-74
2021/03/07 10:46:40;;;;;;;29.58;13.73;;;;;;;13.38;40.35;101784.41;4432900;32;20601;-76
2021/03/07 10:49:08;;;;;;;27.13;13.73;;;;;;;13.59;39.89;101781.97;4431829;32;20955;-76
2021/03/07 10:51:35;;;;;;;26.87;12.35;;;;;;;13.99;38.98;101789.22;4432114;32;20046;-77
2021/03/07 10:54:02;;;;;;;22.58;12.15;;;;;;;13.55;39.35;101778.41;4437328;32;20078;-74
2021/03/07 10:56:30;;;;;;;21.35;11.80;;;;;;;13.79;39.23;101776.31;4439928;32;20100;-76
2021/03/07 10:58:56;;;;;;;19.98;12.37;;;;;;;13.71;38.84;101774.84;4437212;32;20138;-75
2021/03/07 11:01:22;;;;;;;24.10;12.80;;;;;;;13.72;38.71;101768.75;4434443;32;20026;-76
2021/03/07 11:03:48;;;;;;;30.17;12.23;;;;;;;13.90;38.79;101772.00;4429143;32;20052;-77
2021/03/07 11:06:15;;;;;;;21.62;12.65;;;;;;;13.99;38.52;101768.59;4431576;32;20418;-75
2021/03/07 11:08:41;;;;;;;22.70;12.23;;;;;;;14.24;38.38;101768.09;4427060;32;20029;-75
2021/03/07 11:11:07;;;;;;;19.65;12.37;;;;;;;14.25;38.18;101753.50;4418693;32;20210;-76
2021/03/07 11:13:33;;;;;;;25.33;13.00;;;;;;;14.39;38.13;101760.84;4417160;32;20467;-76
2021/03/07 11:15:59;;;;;;;22.92;13.10;;;;;;;14.66;37.87;101769.94;4424350;32;20045;-76
2021/03/07 11:18:25;;;;;;;22.20;11.82;;;;;;;14.84;37.57;101759.72;4431003;32;20045;-77
2021/03/07 11:20:51;;;;;;;20.80;10.95;;;;;;;14.96;36.45;101758.22;4428951;32;20069;-76
2021/03/07 11:23:17;;;;;;;24.95;12.77;;;;;;;14.74;36.09;101748.66;4424911;32;20045;-77
2021/03/07 11:25:43;;;;;;;24.15;13.15;;;;;;;15.10;36.33;101746.50;4431476;32;20038;-76
2021/03/07 11:28:09;;;;;;;25.23;13.40;;;;;;;14.93;36.70;101751.41;4423356;32;20049;-77
2021/03/07 11:30:35;;;;;;;22.50;12.68;;;;;;;14.96;36.26;101746.88;4428513;32;20026;-76
2021/03/07 11:33:01;;;;;;;26.62;12.32;;;;;;;14.62;36.90;101747.34;4430532;32;20522;-76
2021/03/07 11:35:27;;;;;;;24.12;12.37;;;;;;;14.57;37.23;101744.25;4419731;32;20463;-77
2021/03/07 11:37:53;;;;;;;26.00;13.55;;;;;;;14.31;37.80;101748.09;4416319;32;20062;-76
2021/03/07 11:40:19;;;;;;;22.00;12.43;;;;;;;14.40;37.96;101746.25;4421355;32;20057;-76
2021/03/07 11:42:44;;;;;;;23.90;12.35;;;;;;;14.30;37.83;101750.12;4429289;32;20048;-76
2021/03/07 11:45:10;;;;;;;30.88;14.07;;;;;;;14.60;37.33;101741.31;4429623;32;20374;-76
2021/03/07 11:47:36;;;;;;;24.08;13.07;;;;;;;14.06;38.04;101746.59;4426829;32;20034;-76
2021/03/07 11:50:04;;;;;;;27.70;12.75;;;;;;;14.23;38.08;101747.47;4414931;32;20153;-74
2021/03/07 11:52:29;;;;;;;24.65;12.93;;;;;;;14.51;37.60;101737.50;4405908;32;20108;-76
2021/03/07 11:54:55;;;;;;;26.02;12.40;;;;;;;14.78;37.32;101738.03;4418466;32;20368;-75
2021/03/07 11:57:21;;;;;;;23.80;12.68;;;;;;;14.53;37.38;101741.50;4411130;32;20114;-74
2021/03/07 11:59:46;;;;;;;32.38;14.32;;;;;;;14.90;37.18;101740.16;4403869;32;20088;-75
2021/03/07 12:02:12;;;;;;;27.87;13.50;;;;;;;14.16;38.31;101727.78;4420671;32;20037;-75
2021/03/07 12:04:37;;;;;;;23.95;13.55;;;;;;;14.32;38.41;101744.81;4415538;32;20116;-77
2021/03/07 12:07:04;;;;;;;27.62;13.73;;;;;;;14.53;38.05;101735.00;4414078;32;20031;-76
2021/03/07 12:09:29;;;;;;;27.08;13.98;;;;;;;14.62;37.63;101723.88;4410996;32;20401;-76
2021/03/07 12:11:55;;;;;;;26.27;15.13;;;;;;;15.00;37.48;101736.25;4418775;32;20461;-76
2021/03/07 12:14:21;;;;;;;25.42;15.00;;;;;;;14.99;37.47;101726.94;4420135;32;20110;-76
2021/03/07 12:16:47;;;;;;;27.40;15.00;;;;;;;14.70;37.60;101733.78;4415429;32;20027;-76
2021/03/07 12:19:12;;;;;;;28.25;14.63;;;;;;;14.61;37.79;101723.09;4413152;32;20346;-76
2021/03/07 12:21:38;;;;;;;25.27;14.82;;;;;;;14.61;37.96;101720.25;4420108;32;20030;-76
2021/03/07 12:24:05;;;;;;;24.05;14.45;;;;;;;14.44;38.41;101735.63;4421151;32;20056;-75
2021/03/07 12:26:30;;;;;;;30.62;14.57;;;;;;;14.58;37.93;101723.97;4419376;32;20351;-75
2021/03/07 12:28:56;;;;;;;30.83;15.30;;;;;;;14.84;37.46;101705.06;4409894;32;20053;-76
2021/03/07 12:31:22;;;;;;;27.00;13.93;;;;;;;15.41;36.74;101705.16;4417205;32;20540;-75
2021/03/07 12:33:48;;;;;;;27.27;12.20;;;;;;;16.04;35.33;101703.25;4419602;32;20018;-76
2021/03/07 12:36:13;;;;;;;25.37;11.63;;;;;;;16.65;33.67;101711.44;4418832;32;20026;-77